Time;durP1;ratioP1;P1;durP2;ratioP2;P2;SDS_P1;SDS_P2;PMS_P1;PMS_P2;Temp;Humidity;BMP_temperature;BMP_pressure;BME280_temperature;BME280_humidity;BME280_pressure;Samples;Min_cycle;Max_cycle;Signal;HPM_P1;HPM_P2
2021/07/25 00:00:53;;;;;;;11.80;11.20;;;24.80;94.60;;;;;;3586555;40;20489;-56
2021/07/25 00:03:20;;;;;;;13.33;12.57;;;24.80;94.60;;;;;;3585600;40;20448;-56
2021/07/25 00:05:48;;;;;;;12.70;11.97;;;24.80;94.60;;;;;;3585647;40;20455;-53
2021/07/25 00:08:16;;;;;;;11.77;11.17;;;24.80;94.60;;;;;;3585800;40;20506;-55
2021/07/25 00:10:46;;;;;;;12.33;11.63;;;24.80;94.60;;;;;;3585495;40;20474;-56
2021/07/25 00:13:14;;;;;;;12.90;12.20;;;24.80;94.60;;;;;;3585195;40;20916;-57
2021/07/25 00:15:41;;;;;;;12.60;11.90;;;24.80;94.60;;;;;;3585892;40;20474;-55
2021/07/25 00:18:08;;;;;;;11.50;10.90;;;24.80;94.60;;;;;;3584899;40;20466;-53
2021/07/25 00:20:36;;;;;;;12.40;11.80;;;24.80;94.60;;;;;;3585482;40;20462;-57
2021/07/25 00:23:04;;;;;;;12.33;11.63;;;24.80;94.60;;;;;;3585773;40;20848;-54
2021/07/25 00:25:35;;;;;;;12.37;11.77;;;24.80;94.60;;;;;;3586201;40;20477;-55
2021/07/25 00:28:06;;;;;;;12.23;11.53;;;24.80;94.60;;;;;;3595944;40;20676;-55
2021/07/25 00:30:33;;;;;;;12.77;12.07;;;24.80;94.60;;;;;;3596017;40;20674;-55
2021/07/25 00:33:02;;;;;;;11.90;11.30;;;24.80;94.60;;;;;;3595828;40;20896;-53
2021/07/25 00:35:29;;;;;;;12.33;11.60;;;24.80;94.60;;;;;;3596055;40;20487;-54
2021/07/25 00:37:56;;;;;;;12.33;11.73;;;24.80;94.60;;;;;;3595273;40;20442;-55
2021/07/25 00:40:29;;;;;;;12.30;11.70;;;24.80;94.60;;;;;;3595909;40;20596;-55
2021/07/25 00:42:57;;;;;;;11.70;11.10;;;24.80;94.60;;;;;;3596044;40;20496;-55
2021/07/25 00:45:24;;;;;;;11.20;10.60;;;24.80;94.60;;;;;;3595913;40;20465;-53
2021/07/25 00:47:51;;;;;;;11.80;11.20;;;24.80;94.60;;;;;;3595889;40;20546;-57
2021/07/25 00:50:19;;;;;;;11.70;11.10;;;24.80;94.60;;;;;;3586930;40;20489;-54
2021/07/25 00:52:47;;;;;;;11.87;11.27;;;24.80;94.60;;;;;;3596274;40;20452;-54
2021/07/25 00:55:15;;;;;;;12.40;11.70;;;24.80;94.60;;;;;;3596560;40;20473;-56
2021/07/25 00:57:42;;;;;;;12.17;11.57;;;24.80;94.60;;;;;;3596080;40;20445;-58
2021/07/25 01:00:13;;;;;;;11.77;11.07;;;24.80;94.60;;;;;;3595818;40;20465;-52
2021/07/25 01:02:52;;;;;;;12.50;11.80;;;24.80;94.60;;;;;;3595557;40;20755;-57
2021/07/25 01:05:28;;;;;;;12.00;11.40;;;24.80;94.60;;;;;;3596438;40;20457;-56
2021/07/25 01:08:04;;;;;;;12.17;11.57;;;24.80;94.60;;;;;;3596458;40;20735;-56
2021/07/25 01:10:32;;;;;;;11.60;11.00;;;24.80;94.60;;;;;;3596371;40;20453;-57
2021/07/25 01:13:02;;;;;;;12.03;11.33;;;24.80;94.60;;;;;;3595311;40;20884;-53
2021/07/25 01:15:33;;;;;;;12.90;12.20;;;24.80;94.60;;;;;;3596596;40;20517;-53
2021/07/25 01:18:01;;;;;;;11.80;11.30;;;24.80;94.60;;;;;;3595814;40;20453;-54
2021/07/25 01:20:29;;;;;;;12.03;11.43;;;24.80;94.60;;;;;;3595723;40;20469;-54
2021/07/25 01:22:59;;;;;;;12.83;12.13;;;24.80;94.60;;;;;;3596140;40;20458;-56
2021/07/25 01:25:28;;;;;;;12.27;11.67;;;24.80;94.60;;;;;;3586894;40;20857;-54
2021/07/25 01:27:58;;;;;;;12.13;11.50;;;24.80;94.60;;;;;;3576842;40;20850;-53
2021/07/25 01:30:29;;;;;;;13.20;12.50;;;24.80;94.60;;;;;;3576695;40;20466;-56
2021/07/25 01:32:58;;;;;;;12.90;12.20;;;24.80;94.60;;;;;;3585705;40;20447;-55
2021/07/25 01:35:27;;;;;;;12.20;11.60;;;24.80;94.60;;;;;;3585622;40;20689;-56
2021/07/25 01:37:57;;;;;;;11.87;11.27;;;24.80;94.60;;;;;;3585890;40;20466;-56
2021/07/25 01:40:26;;;;;;;11.83;11.23;;;24.80;94.60;;;;;;3586056;40;20729;-56
2021/07/25 01:42:54;;;;;;;12.03;11.43;;;24.80;94.60;;;;;;3585449;40;20742;-56
2021/07/25 01:45:21;;;;;;;12.37;11.67;;;24.80;94.60;;;;;;3576479;40;20466;-57
2021/07/25 01:47:49;;;;;;;12.50;11.87;;;24.80;94.60;;;;;;3585252;40;20484;-57
2021/07/25 01:50:17;;;;;;;12.53;11.90;;;24.80;94.60;;;;;;3586415;40;20466;-57
2021/07/25 01:52:44;;;;;;;11.53;10.93;;;24.80;94.60;;;;;;3585676;40;20859;-56
2021/07/25 01:55:14;;;;;;;12.57;11.87;;;24.80;94.60;;;;;;3585616;40;20794;-55
2021/07/25 01:57:41;;;;;;;11.20;10.70;;;24.80;94.60;;;;;;3586163;40;20490;-53
2021/07/25 02:00:10;;;;;;;11.83;11.23;;;24.80;94.60;;;;;;3585974;40;20564;-55
2021/07/25 02:02:37;;;;;;;11.40;10.80;;;24.80;94.60;;;;;;3584882;40;20450;-54
2021/07/25 02:05:05;;;;;;;11.77;11.17;;;24.80;94.60;;;;;;3584981;40;21034;-55
2021/07/25 02:07:33;;;;;;;11.33;10.73;;;24.80;94.60;;;;;;3585653;40;20572;-53
2021/07/25 02:10:00;;;;;;;13.00;12.30;;;24.80;94.60;;;;;;3585038;40;20470;-54
2021/07/25 02:12:28;;;;;;;12.60;11.90;;;24.80;94.60;;;;;;3585055;40;20663;-54
2021/07/25 02:14:56;;;;;;;11.30;10.70;;;24.80;94.60;;;;;;3585820;40;20620;-53
2021/07/25 02:17:23;;;;;;;11.90;11.30;;;24.80;94.60;;;;;;3585609;40;20455;-58
2021/07/25 02:19:50;;;;;;;12.03;11.33;;;24.80;94.90;;;;;;3585934;40;20837;-57
2021/07/25 02:22:17;;;;;;;12.10;11.50;;;24.80;94.60;;;;;;3586538;40;20462;-55
2021/07/25 02:24:44;;;;;;;12.17;11.57;;;24.80;94.60;;;;;;3585819;40;20813;-55
2021/07/25 02:27:11;;;;;;;11.87;11.27;;;24.80;94.60;;;;;;3585998;40;20662;-54
2021/07/25 02:29:40;;;;;;;12.30;11.67;;;24.80;94.60;;;;;;3585456;40;20476;-53
2021/07/25 02:32:08;;;;;;;11.60;11.00;;;24.80;94.60;;;;;;3584681;40;20529;-54
2021/07/25 02:34:36;;;;;;;11.87;11.30;;;24.80;94.60;;;;;;3575853;40;20469;-53
2021/07/25 02:37:04;;;;;;;12.37;11.67;;;24.80;94.60;;;;;;3576781;40;20506;-55
2021/07/25 02:39:31;;;;;;;11.57;10.97;;;24.80;94.60;;;;;;3576585;40;20684;-55
2021/07/25 02:41:59;;;;;;;11.93;11.33;;;24.80;94.60;;;;;;3585635;40;20506;-53
2021/07/25 02:44:26;;;;;;;11.20;10.60;;;24.80;94.60;;;;;;3585466;40;20465;-53
2021/07/25 02:46:54;;;;;;;11.33;10.80;;;24.80;94.60;;;;;;3585427;40;20667;-55
2021/07/25 02:49:22;;;;;;;11.47;10.90;;;24.80;94.60;;;;;;3586119;40;20481;-57
2021/07/25 02:51:49;;;;;;;12.13;11.53;;;24.80;94.60;;;;;;3585309;40;20494;-53
2021/07/25 02:54:17;;;;;;;12.40;11.70;;;24.80;94.60;;;;;;3585563;40;20552;-55
2021/07/25 02:56:44;;;;;;;11.27;10.70;;;24.80;94.60;;;;;;3587090;40;20816;-53
2021/07/25 02:59:11;;;;;;;12.17;11.50;;;24.80;94.60;;;;;;3585451;40;20541;-54
2021/07/25 03:01:38;;;;;;;12.10;11.47;;;24.80;94.60;;;;;;3586553;40;20845;-56
2021/07/25 03:04:07;;;;;;;11.70;11.10;;;24.80;94.60;;;;;;3584979;40;20463;-55
2021/07/25 03:06:34;;;;;;;11.73;11.13;;;24.80;94.60;;;;;;3584689;40;20476;-55
2021/07/25 03:09:01;;;;;;;12.47;11.80;;;24.80;94.60;;;;;;3585500;40;20788;-53
2021/07/25 03:11:28;;;;;;;11.70;11.10;;;24.80;94.60;;;;;;3584761;40;20474;-56
2021/07/25 03:13:55;;;;;;;11.70;11.10;;;24.80;94.60;;;;;;3584665;40;20470;-55
2021/07/25 03:16:23;;;;;;;12.03;11.37;;;24.80;94.60;;;;;;3584807;40;20450;-53
2021/07/25 03:18:50;;;;;;;11.77;11.17;;;24.80;94.60;;;;;;3584936;40;20595;-57
2021/07/25 03:21:19;;;;;;;11.77;11.17;;;24.80;94.60;;;;;;3584900;40;20473;-55
2021/07/25 03:23:46;;;;;;;11.80;11.20;;;24.80;94.60;;;;;;3585530;40;20469;-53
2021/07/25 03:26:13;;;;;;;12.53;11.90;;;24.80;94.60;;;;;;3585689;40;20461;-55
2021/07/25 03:28:40;;;;;;;11.97;11.47;;;24.80;94.60;;;;;;3585881;40;20709;-53
2021/07/25 03:31:07;;;;;;;11.97;11.37;;;24.80;94.60;;;;;;3585466;40;20474;-55
2021/07/25 03:33:34;;;;;;;13.13;12.43;;;24.80;94.60;;;;;;3585812;40;20458;-55
2021/07/25 03:36:02;;;;;;;11.23;10.73;;;24.80;94.60;;;;;;3585545;40;20502;-56
2021/07/25 03:38:30;;;;;;;12.20;11.60;;;24.80;94.60;;;;;;3585374;40;20493;-55
2021/07/25 03:41:01;;;;;;;11.30;10.80;;;24.80;94.60;;;;;;3585586;40;20739;-53
2021/07/25 03:43:30;;;;;;;12.33;11.77;;;24.80;94.60;;;;;;3586080;40;20879;-55
2021/07/25 03:45:58;;;;;;;12.80;12.20;;;24.80;94.60;;;;;;3586556;40;20824;-53
2021/07/25 03:48:26;;;;;;;11.90;11.33;;;24.80;94.60;;;;;;3586847;40;20950;-53
2021/07/25 03:50:55;;;;;;;11.40;10.90;;;24.80;94.60;;;;;;3586504;40;20465;-55
2021/07/25 03:53:22;;;;;;;12.40;11.80;;;24.80;94.60;;;;;;3586682;40;20466;-54
2021/07/25 03:55:51;;;;;;;12.40;11.70;;;24.80;94.60;;;;;;3587006;40;20536;-54
2021/07/25 03:58:18;;;;;;;13.03;12.33;;;24.80;94.60;;;;;;3586421;40;20554;-53
2021/07/25 04:00:45;;;;;;;12.20;11.60;;;24.80;94.60;;;;;;3587300;40;20456;-54
2021/07/25 04:03:12;;;;;;;12.07;11.47;;;24.80;94.60;;;;;;3587431;40;20470;-55
2021/07/25 04:05:40;;;;;;;11.80;11.30;;;24.80;94.60;;;;;;3586363;40;20494;-55
2021/07/25 04:08:09;;;;;;;11.40;10.87;;;24.80;94.60;;;;;;3586550;40;20759;-53
2021/07/25 04:10:40;;;;;;;11.70;11.10;;;24.80;94.60;;;;;;3586332;40;20708;-53
2021/07/25 04:13:09;;;;;;;11.20;10.70;;;24.80;94.60;;;;;;3577347;40;20492;-53
2021/07/25 04:15:40;;;;;;;12.17;11.57;;;24.80;94.70;;;;;;3585697;40;20473;-55
2021/07/25 04:18:08;;;;;;;11.90;11.30;;;24.80;94.60;;;;;;3585164;40;20627;-54
2021/07/25 04:20:36;;;;;;;11.73;11.13;;;24.80;94.60;;;;;;3585535;40;20474;-54
2021/07/25 04:23:03;;;;;;;11.80;11.20;;;24.80;94.60;;;;;;3586034;40;20462;-55
2021/07/25 04:25:31;;;;;;;10.87;10.37;;;24.80;94.60;;;;;;3585879;40;20462;-55
2021/07/25 04:27:59;;;;;;;11.57;10.97;;;24.80;94.60;;;;;;3586378;40;20735;-54
2021/07/25 04:30:32;;;;;;;11.43;10.83;;;24.80;94.60;;;;;;3586036;40;20470;-54
2021/07/25 04:33:01;;;;;;;12.13;11.53;;;24.80;94.60;;;;;;3585932;40;20476;-54
2021/07/25 04:35:30;;;;;;;11.83;11.23;;;24.80;94.60;;;;;;3586028;40;20447;-54
2021/07/25 04:37:58;;;;;;;12.07;11.47;;;24.80;94.60;;;;;;3586808;40;20641;-55
2021/07/25 04:40:26;;;;;;;12.30;11.70;;;24.80;94.60;;;;;;3586660;40;20447;-55
2021/07/25 04:42:55;;;;;;;11.33;10.83;;;24.80;94.60;;;;;;3577275;40;20674;-52
2021/07/25 04:45:33;;;;;;;12.23;11.63;;;24.80;94.60;;;;;;3577295;40;20450;-54
2021/07/25 04:48:08;;;;;;;12.07;11.47;;;24.80;94.60;;;;;;3585792;40;20462;-54
2021/07/25 04:50:38;;;;;;;11.60;11.10;;;24.80;94.60;;;;;;3577333;40;20480;-54
2021/07/25 04:53:07;;;;;;;12.93;12.23;;;24.80;94.60;;;;;;3585489;40;20466;-54
2021/07/25 04:55:36;;;;;;;12.30;11.70;;;24.80;94.60;;;;;;3584272;40;20451;-57
2021/07/25 04:58:07;;;;;;;11.20;10.70;;;24.80;94.60;;;;;;3585817;40;20492;-56
2021/07/25 05:00:43;;;;;;;11.73;11.23;;;24.80;94.60;;;;;;3586353;40;20462;-54
2021/07/25 05:03:13;;;;;;;11.53;11.03;;;24.80;94.60;;;;;;3585821;40;20522;-53
2021/07/25 05:05:41;;;;;;;11.90;11.30;;;24.80;94.60;;;;;;3586215;40;20482;-56
2021/07/25 05:08:09;;;;;;;12.10;11.50;;;24.80;94.60;;;;;;3586990;40;20836;-54
2021/07/25 05:10:37;;;;;;;11.50;10.90;;;24.80;94.60;;;;;;3586381;40;20481;-54
2021/07/25 05:13:08;;;;;;;11.77;11.20;;;24.80;94.60;;;;;;3585547;40;20493;-55
2021/07/25 05:15:41;;;;;;;11.83;11.23;;;24.80;94.60;;;;;;3586025;40;20458;-55
2021/07/25 05:18:13;;;;;;;12.10;11.50;;;24.80;94.60;;;;;;3585600;40;20462;-53
2021/07/25 05:20:50;;;;;;;12.20;11.60;;;24.80;94.60;;;;;;3585609;40;20504;-52
2021/07/25 05:23:25;;;;;;;10.90;10.43;;;24.80;94.60;;;;;;3585429;40;20456;-54
2021/07/25 05:25:55;;;;;;;11.00;10.50;;;24.80;94.60;;;;;;3586120;40;20967;-54
2021/07/25 05:28:23;;;;;;;12.00;11.40;;;24.80;94.60;;;;;;3585467;40;20692;-57
2021/07/25 05:30:54;;;;;;;11.60;11.07;;;24.80;94.60;;;;;;3585072;40;20493;-57
2021/07/25 05:33:22;;;;;;;11.70;11.10;;;24.80;94.60;;;;;;3575841;40;20521;-55
2021/07/25 05:35:49;;;;;;;12.10;11.50;;;24.80;94.60;;;;;;3585819;40;20458;-57
2021/07/25 05:38:18;;;;;;;11.93;11.33;;;24.80;94.60;;;;;;3584816;40;20826;-57
2021/07/25 05:40:45;;;;;;;11.30;10.80;;;24.80;94.60;;;;;;3584732;40;20458;-53
2021/07/25 05:43:12;;;;;;;11.70;11.10;;;24.80;94.60;;;;;;3586040;40;20462;-56
2021/07/25 05:45:40;;;;;;;11.40;10.90;;;24.80;94.60;;;;;;3585337;40;20458;-54
2021/07/25 05:48:08;;;;;;;12.10;11.50;;;24.80;94.60;;;;;;3585569;40;20748;-52
2021/07/25 05:50:36;;;;;;;11.57;11.07;;;24.80;94.60;;;;;;3583636;40;20469;-53
2021/07/25 05:53:04;;;;;;;12.10;11.50;;;24.80;94.60;;;;;;3585581;40;20449;-53
2021/07/25 05:55:33;;;;;;;11.63;11.03;;;24.80;94.60;;;;;;3584841;40;20452;-54
2021/07/25 05:58:01;;;;;;;11.27;10.77;;;24.80;94.60;;;;;;3584516;40;20462;-56
2021/07/25 06:00:29;;;;;;;11.50;11.00;;;24.80;94.60;;;;;;3584983;40;20685;-54
2021/07/25 06:02:57;;;;;;;12.27;11.67;;;24.80;94.60;;;;;;3584464;40;20454;-53
2021/07/25 06:05:27;;;;;;;11.77;11.20;;;24.80;94.60;;;;;;3585063;40;20462;-58
2021/07/25 06:07:55;;;;;;;12.80;12.10;;;24.80;94.60;;;;;;3583931;40;20709;-57
2021/07/25 06:10:25;;;;;;;11.70;11.20;;;24.80;94.60;;;;;;3574771;40;20658;-53
2021/07/25 06:12:52;;;;;;;12.57;11.97;;;24.80;94.60;;;;;;3584852;40;20450;-56
2021/07/25 06:15:21;;;;;;;12.23;11.63;;;24.80;94.60;;;;;;3584893;40;20466;-55
2021/07/25 06:17:48;;;;;;;11.87;11.37;;;24.80;94.60;;;;;;3575449;40;20488;-54
2021/07/25 06:20:16;;;;;;;11.90;11.30;;;24.80;94.60;;;;;;3585144;40;20732;-55
2021/07/25 06:22:46;;;;;;;11.47;11.07;;;24.80;94.60;;;;;;3584480;40;20696;-54
2021/07/25 06:25:15;;;;;;;12.40;11.80;;;24.80;94.60;;;;;;3585329;40;20467;-56
2021/07/25 06:27:42;;;;;;;12.80;12.17;;;24.80;94.60;;;;;;3584633;40;20552;-53
2021/07/25 06:30:10;;;;;;;12.20;11.60;;;24.80;94.60;;;;;;3583945;40;20840;-54
2021/07/25 06:32:55;;;;;;;12.00;11.40;;;24.80;94.60;;;;;;3582787;40;20493;-55
2021/07/25 06:35:23;;;;;;;11.20;10.70;;;24.80;94.60;;;;;;3581388;40;20479;-56
2021/07/25 06:37:52;;;;;;;11.50;10.93;;;24.80;94.60;;;;;;3579586;40;20471;-55
2021/07/25 06:40:19;;;;;;;12.23;11.63;;;24.80;94.60;;;;;;3576106;40;20459;-56
2021/07/25 06:42:47;;;;;;;11.47;10.90;;;24.80;94.60;;;;;;3583589;40;20477;-56
2021/07/25 06:45:14;;;;;;;12.40;11.80;;;24.80;94.60;;;;;;3585303;40;20442;-57
2021/07/25 06:47:46;;;;;;;12.53;11.93;;;24.80;94.60;;;;;;3585625;40;20454;-55
2021/07/25 06:50:13;;;;;;;12.27;11.67;;;24.80;94.60;;;;;;3585768;40;20532;-57
2021/07/25 06:52:41;;;;;;;12.40;11.80;;;24.80;94.60;;;;;;3585633;40;20482;-56
2021/07/25 06:55:11;;;;;;;12.37;11.77;;;24.80;94.60;;;;;;3574825;40;20471;-56
2021/07/25 06:57:38;;;;;;;11.20;10.70;;;24.80;94.60;;;;;;3575089;40;20838;-56
2021/07/25 07:00:07;;;;;;;11.57;11.07;;;24.80;94.60;;;;;;3574403;40;20459;-57
2021/07/25 07:02:48;;;;;;;12.50;11.90;;;24.80;94.60;;;;;;3566639;40;20470;-56
2021/07/25 07:05:17;;;;;;;12.40;11.80;;;24.90;94.60;;;;;;3574306;40;20451;-56
2021/07/25 07:07:45;;;;;;;11.80;11.30;;;24.80;94.60;;;;;;3565422;40;20486;-56
2021/07/25 07:10:14;;;;;;;12.13;11.63;;;24.90;94.60;;;;;;3574902;40;20474;-58
2021/07/25 07:12:42;;;;;;;10.90;10.50;;;24.80;94.60;;;;;;3574558;40;20826;-55
2021/07/25 07:15:10;;;;;;;12.30;11.70;;;24.80;94.60;;;;;;3572696;40;20479;-54
2021/07/25 07:17:39;;;;;;;12.00;11.43;;;24.80;94.60;;;;;;3573253;40;20797;-54
2021/07/25 07:20:08;;;;;;;11.70;11.10;;;24.90;94.60;;;;;;3574650;40;20463;-54
2021/07/25 07:22:35;;;;;;;12.20;11.60;;;24.80;94.60;;;;;;3574201;40;20463;-53
2021/07/25 07:25:05;;;;;;;12.13;11.53;;;24.80;94.60;;;;;;3575110;40;20487;-56
2021/07/25 07:27:34;;;;;;;12.30;11.70;;;24.80;94.60;;;;;;3574675;40;20533;-56
2021/07/25 07:30:03;;;;;;;11.70;11.10;;;24.90;94.60;;;;;;3575219;40;20463;-54
2021/07/25 07:32:30;;;;;;;12.20;11.60;;;24.90;94.60;;;;;;3576441;40;20470;-54
2021/07/25 07:34:57;;;;;;;12.40;11.80;;;24.80;94.60;;;;;;3566702;40;20490;-56
2021/07/25 07:37:24;;;;;;;11.90;11.30;;;24.90;94.60;;;;;;3575825;40;20481;-57
2021/07/25 07:39:51;;;;;;;11.77;11.17;;;24.80;94.60;;;;;;3574908;40;20482;-54
2021/07/25 07:42:19;;;;;;;11.70;11.10;;;24.90;94.60;;;;;;3575472;40;20550;-54
2021/07/25 07:44:47;;;;;;;11.40;10.90;;;24.90;94.90;;;;;;3574909;40;20451;-55
2021/07/25 07:47:15;;;;;;;11.70;11.10;;;24.90;94.60;;;;;;3575240;40;20459;-55
2021/07/25 07:49:42;;;;;;;11.07;10.57;;;24.90;94.60;;;;;;3574136;40;20447;-57
2021/07/25 07:52:09;;;;;;;11.13;10.53;;;24.90;94.70;;;;;;3565675;40;20829;-53
2021/07/25 07:54:38;;;;;;;11.37;10.77;;;24.90;94.60;;;;;;3574878;40;20487;-56
2021/07/25 07:57:05;;;;;;;11.23;10.73;;;24.90;94.60;;;;;;3573838;40;20470;-55
2021/07/25 07:59:32;;;;;;;10.80;10.30;;;24.80;94.60;;;;;;3565788;40;20556;-56
2021/07/25 08:02:01;;;;;;;11.50;10.90;;;24.90;94.60;;;;;;3573103;40;20469;-57
2021/07/25 08:04:28;;;;;;;11.50;10.90;;;24.90;94.70;;;;;;3572705;40;20911;-56
2021/07/25 08:06:55;;;;;;;10.90;10.40;;;24.90;94.70;;;;;;3573326;40;20504;-55
2021/07/25 08:09:22;;;;;;;11.43;10.83;;;24.90;94.70;;;;;;3573944;40;20475;-53
2021/07/25 08:11:50;;;;;;;10.80;10.30;;;24.90;94.60;;;;;;3573822;40;20859;-54
2021/07/25 08:14:19;;;;;;;10.90;10.40;;;24.90;94.60;;;;;;3574443;40;20459;-57
2021/07/25 08:16:46;;;;;;;11.23;10.63;;;24.90;94.70;;;;;;3574399;40;20457;-55
2021/07/25 08:19:16;;;;;;;12.13;11.53;;;24.90;94.60;;;;;;3574192;40;21010;-55
2021/07/25 08:21:44;;;;;;;11.80;11.30;;;24.90;94.60;;;;;;3574334;40;20443;-54
2021/07/25 08:24:11;;;;;;;10.53;10.03;;;24.90;94.60;;;;;;3577975;40;20462;-55
2021/07/25 08:26:39;;;;;;;10.40;9.93;;;24.90;94.60;;;;;;3583488;40;20543;-54
2021/07/25 08:29:06;;;;;;;11.37;10.77;;;24.90;94.60;;;;;;3583265;40;20547;-53
2021/07/25 08:31:40;;;;;;;11.30;10.70;;;24.90;94.60;;;;;;3584029;40;20758;-54
2021/07/25 08:34:16;;;;;;;10.90;10.40;;;24.90;94.60;;;;;;3584017;40;20754;-56
2021/07/25 08:36:44;;;;;;;10.93;10.43;;;24.90;94.60;;;;;;3573708;40;21467;-57
2021/07/25 08:39:13;;;;;;;11.10;10.60;;;24.80;94.60;;;;;;3583145;40;20770;-53
2021/07/25 08:42:05;;;;;;;11.50;10.97;;;24.80;94.60;;;;;;3574378;40;20556;-53
2021/07/25 08:44:43;;;;;;;11.03;10.53;;;24.90;94.70;;;;;;3583208;40;20454;-56
2021/07/25 08:47:33;;;;;;;11.97;11.40;;;24.90;94.60;;;;;;3584183;40;20470;-56
2021/07/25 08:50:04;;;;;;;11.90;11.37;;;24.90;94.70;;;;;;3584111;40;20697;-56
2021/07/25 08:52:33;;;;;;;12.33;11.73;;;24.90;95.00;;;;;;3583744;40;20470;-56
2021/07/25 08:55:01;;;;;;;11.77;11.17;;;24.80;94.90;;;;;;3582491;40;20474;-56
2021/07/25 08:57:31;;;;;;;11.10;10.60;;;24.80;94.60;;;;;;3582316;40;20537;-54
2021/07/25 08:59:59;;;;;;;11.50;10.90;;;24.80;94.60;;;;;;3582136;40;20459;-57
2021/07/25 09:02:28;;;;;;;12.30;11.70;;;24.80;94.60;;;;;;3581695;40;20470;-55
2021/07/25 09:04:57;;;;;;;11.70;11.10;;;24.90;94.70;;;;;;3582990;40;20783;-57
2021/07/25 09:07:28;;;;;;;11.40;10.90;;;24.90;94.70;;;;;;3581265;40;20494;-57
2021/07/25 09:09:57;;;;;;;11.67;11.17;;;24.90;94.70;;;;;;3573868;40;20475;-58
2021/07/25 09:12:26;;;;;;;12.70;12.20;;;24.90;94.70;;;;;;3583845;40;20739;-56
2021/07/25 09:14:56;;;;;;;13.00;12.40;;;24.90;94.70;;;;;;3583885;40;20446;-56
2021/07/25 09:17:24;;;;;;;11.80;11.20;;;24.90;94.70;;;;;;3584103;40;20673;-54
2021/07/25 09:20:21;;;;;;;11.77;11.27;;;24.90;94.70;;;;;;3583449;40;20714;-53
2021/07/25 09:23:06;;;;;;;12.27;11.67;;;24.90;94.70;;;;;;3582536;40;20469;-56
2021/07/25 09:25:36;;;;;;;12.10;11.60;;;24.90;94.70;;;;;;3581441;40;20466;-54
2021/07/25 09:28:26;;;;;;;11.40;10.93;;;24.90;94.70;;;;;;3583166;40;20469;-56
2021/07/25 09:30:54;;;;;;;12.67;12.07;;;24.90;94.70;;;;;;3581704;40;20498;-53
2021/07/25 09:33:30;;;;;;;12.87;12.27;;;24.90;94.70;;;;;;3583100;40;20462;-54
2021/07/25 09:36:06;;;;;;;12.93;12.33;;;24.80;94.60;;;;;;3581484;40;20588;-56
2021/07/25 09:38:37;;;;;;;12.90;12.30;;;24.90;94.70;;;;;;3580494;40;20491;-56
2021/07/25 09:41:25;;;;;;;12.77;12.17;;;24.90;94.70;;;;;;3572916;40;20456;-57
2021/07/25 09:44:04;;;;;;;12.47;11.97;;;24.90;94.70;;;;;;3572311;40;20475;-58
2021/07/25 09:46:43;;;;;;;12.43;11.93;;;24.90;94.60;;;;;;3554542;40;20502;-54
2021/07/25 09:49:10;;;;;;;12.50;12.00;;;24.90;94.70;;;;;;3562842;40;20526;-58
2021/07/25 09:51:37;;;;;;;13.00;12.37;;;24.90;94.70;;;;;;3572691;40;20486;-58
2021/07/25 09:54:06;;;;;;;11.80;11.30;;;24.90;94.60;;;;;;3563543;40;20483;-55
2021/07/25 09:56:34;;;;;;;12.97;12.37;;;24.90;94.70;;;;;;3571949;40;20599;-55
2021/07/25 09:59:01;;;;;;;11.37;10.87;;;24.90;94.70;;;;;;3570919;40;20768;-57
2021/07/25 10:01:36;;;;;;;12.50;12.00;;;24.90;94.60;;;;;;3572429;40;20455;-57
2021/07/25 10:04:13;;;;;;;12.70;12.10;;;24.90;94.70;;;;;;3561338;40;20486;-53
2021/07/25 10:06:41;;;;;;;12.03;11.53;;;24.90;94.70;;;;;;3572887;40;20765;-55
2021/07/25 10:09:10;;;;;;;12.07;11.57;;;24.90;94.60;;;;;;3571717;40;20490;-57
2021/07/25 10:11:41;;;;;;;12.03;11.53;;;24.90;94.60;;;;;;3572088;40;20775;-54
2021/07/25 10:14:09;;;;;;;11.70;11.20;;;24.90;94.70;;;;;;3572733;40;20458;-55
2021/07/25 10:16:36;;;;;;;13.20;12.60;;;24.90;94.70;;;;;;3573554;40;20459;-57
2021/07/25 10:19:06;;;;;;;11.53;11.03;;;24.90;94.70;;;;;;3572400;40;20621;-53
2021/07/25 10:21:34;;;;;;;11.30;10.80;;;24.90;94.70;;;;;;3572615;40;20491;-55
2021/07/25 10:24:04;;;;;;;11.50;11.00;;;24.90;94.70;;;;;;3577991;40;20512;-57
2021/07/25 10:26:36;;;;;;;11.40;10.90;;;24.90;94.70;;;;;;3593373;40;20453;-54
2021/07/25 10:29:06;;;;;;;10.73;10.23;;;24.90;94.70;;;;;;3593171;40;20465;-57
2021/07/25 10:31:35;;;;;;;12.07;11.50;;;24.90;94.70;;;;;;3593758;40;20558;-54
2021/07/25 10:34:02;;;;;;;12.00;11.50;;;24.90;94.70;;;;;;3592242;40;20477;-56
2021/07/25 10:36:33;;;;;;;11.73;11.23;;;24.90;94.70;;;;;;3581790;40;20805;-55
2021/07/25 10:39:00;;;;;;;11.40;10.80;;;24.90;94.70;;;;;;3590211;40;20492;-53
2021/07/25 10:41:28;;;;;;;11.60;11.00;;;24.90;94.70;;;;;;3590937;40;20564;-58
2021/07/25 10:44:02;;;;;;;10.90;10.40;;;24.90;94.70;;;;;;3590688;40;20480;-54
2021/07/25 10:46:32;;;;;;;10.90;10.40;;;24.80;94.70;;;;;;3580878;40;20562;-57
2021/07/25 10:49:18;;;;;;;11.30;10.80;;;24.80;94.70;;;;;;3580479;40;20890;-55
2021/07/25 10:51:57;;;;;;;11.80;11.20;;;24.90;94.70;;;;;;3590989;40;20543;-54
2021/07/25 10:54:47;;;;;;;11.90;11.30;;;24.90;95.00;;;;;;3592905;39;20493;-54
2021/07/25 10:57:15;;;;;;;11.50;11.00;;;24.90;94.70;;;;;;3590972;40;20492;-53
2021/07/25 10:59:45;;;;;;;12.00;11.40;;;24.90;94.70;;;;;;3592168;40;20568;-54
2021/07/25 11:02:14;;;;;;;11.87;11.27;;;24.80;94.60;;;;;;3592134;40;20694;-56
2021/07/25 11:05:00;;;;;;;10.97;10.47;;;24.80;94.70;;;;;;3592363;40;20507;-57
2021/07/25 11:07:36;;;;;;;11.40;10.90;;;24.90;94.70;;;;;;3592327;40;20480;-57
2021/07/25 11:10:10;;;;;;;11.20;10.70;;;24.90;94.70;;;;;;3591082;40;20507;-57
2021/07/25 11:13:17;;;;;;;11.50;11.00;;;24.90;94.70;;;;;;3593767;40;20530;-58
2021/07/25 11:15:47;;;;;;;11.63;11.10;;;24.90;94.70;;;;;;3593255;40;20516;-55
2021/07/25 11:18:30;;;;;;;11.90;11.30;;;24.90;94.70;;;;;;3593308;40;20559;-53
2021/07/25 11:20:59;;;;;;;10.90;10.40;;;24.90;94.70;;;;;;3592371;40;21170;-55
2021/07/25 11:23:35;;;;;;;11.83;11.23;;;24.90;94.70;;;;;;3594427;40;20737;-57
2021/07/25 11:26:32;;;;;;;11.50;11.00;;;24.90;94.70;;;;;;3583539;40;20460;-57
2021/07/25 11:29:00;;;;;;;10.93;10.43;;;24.90;94.70;;;;;;3588378;40;21154;-57
2021/07/25 11:31:49;;;;;;;11.43;10.90;;;24.90;94.70;;;;;;3595600;40;20447;-56
2021/07/25 11:34:25;;;;;;;11.70;11.20;;;24.90;94.70;;;;;;3584570;40;20647;-57
2021/07/25 11:36:55;;;;;;;12.23;11.67;;;24.90;94.70;;;;;;3583526;40;20465;-57
2021/07/25 11:39:22;;;;;;;11.67;11.13;;;24.90;94.70;;;;;;3585151;40;20474;-57
2021/07/25 11:41:50;;;;;;;11.63;11.10;;;24.90;94.70;;;;;;3584046;40;20450;-57
2021/07/25 11:44:25;;;;;;;10.90;10.40;;;24.90;94.70;;;;;;3584569;40;20474;-56
2021/07/25 11:46:54;;;;;;;12.03;11.53;;;24.90;94.70;;;;;;3595318;40;20453;-58
2021/07/25 11:49:23;;;;;;;12.00;11.40;;;24.90;94.70;;;;;;3595526;40;20457;-57
2021/07/25 11:51:52;;;;;;;11.53;11.03;;;24.90;94.70;;;;;;3595105;40;20446;-57
2021/07/25 11:54:23;;;;;;;11.90;11.30;;;24.80;94.70;;;;;;3595711;40;20496;-54
2021/07/25 11:56:54;;;;;;;10.97;10.37;;;24.90;94.70;;;;;;3594557;40;20825;-56
2021/07/25 11:59:22;;;;;;;11.80;11.20;;;24.90;94.70;;;;;;3586309;40;20910;-56
2021/07/25 12:01:50;;;;;;;11.80;11.17;;;24.90;94.70;;;;;;3594717;40;20460;-57
2021/07/25 12:04:20;;;;;;;10.97;10.47;;;24.90;94.70;;;;;;3593445;39;20476;-54
2021/07/25 12:06:56;;;;;;;11.80;11.30;;;24.90;94.70;;;;;;3594836;40;20458;-57
2021/07/25 12:09:24;;;;;;;12.13;11.53;;;24.90;94.70;;;;;;3593534;40;20453;-58
2021/07/25 12:12:04;;;;;;;12.33;11.73;;;24.90;94.70;;;;;;3594586;40;20530;-58
2021/07/25 12:14:32;;;;;;;11.17;10.67;;;24.90;94.70;;;;;;3593261;40;20815;-57
2021/07/25 12:16:59;;;;;;;11.20;10.70;;;24.90;94.70;;;;;;3594510;40;20449;-56
2021/07/25 12:19:34;;;;;;;12.23;11.63;;;24.90;94.70;;;;;;3593637;40;20469;-57
2021/07/25 12:22:13;;;;;;;11.10;10.60;;;24.90;94.70;;;;;;3579088;40;20988;-53
2021/07/25 12:24:42;;;;;;;11.00;10.50;;;24.90;94.70;;;;;;3583735;40;20477;-57
2021/07/25 12:27:28;;;;;;;11.30;10.80;;;24.90;94.70;;;;;;3584020;40;20465;-57
2021/07/25 12:30:12;;;;;;;10.97;10.47;;;24.90;94.80;;;;;;3583326;40;20458;-57
2021/07/25 12:32:40;;;;;;;10.77;10.27;;;24.90;94.80;;;;;;3589862;40;20472;-57
2021/07/25 12:35:32;;;;;;;11.67;11.07;;;24.90;94.70;;;;;;3594323;40;20465;-58
2021/07/25 12:38:02;;;;;;;11.63;11.13;;;24.90;94.80;;;;;;3581903;40;20610;-56
2021/07/25 12:40:30;;;;;;;10.97;10.47;;;24.90;94.70;;;;;;3591614;40;20461;-57
2021/07/25 12:43:06;;;;;;;11.60;11.07;;;24.90;94.70;;;;;;3593134;40;20535;-56